sensor_id;sensor_type;location;lat;lon;timestamp;P1;durP1;ratioP1;P2;durP2;ratioP2
73474;SDS011;61711;52.266;10.542;2023-02-01T00:01:19;9.65;;;2.03;;
73474;SDS011;61711;52.266;10.542;2023-02-01T00:03:45;16.02;;;2.40;;
73474;SDS011;61711;52.266;10.542;2023-02-01T00:06:11;12.48;;;2.70;;
73474;SDS011;61711;52.266;10.542;2023-02-01T00:08:37;14.57;;;2.55;;
73474;SDS011;61711;52.266;10.542;2023-02-01T00:11:04;14.00;;;2.13;;
73474;SDS011;61711;52.266;10.542;2023-02-01T00:13:31;14.35;;;2.58;;
73474;SDS011;61711;52.266;10.542;2023-02-01T00:16:05;13.95;;;2.15;;
73474;SDS011;61711;52.266;10.542;2023-02-01T00:18:31;9.25;;;2.00;;
73474;SDS011;61711;52.266;10.542;2023-02-01T00:20:57;12.45;;;2.10;;
73474;SDS011;61711;52.266;10.542;2023-02-01T00:23:23;10.70;;;1.75;;
73474;SDS011;61711;52.266;10.542;2023-02-01T00:25:50;16.27;;;2.20;;
73474;SDS011;61711;52.266;10.542;2023-02-01T00:28:16;11.05;;;2.28;;
73474;SDS011;61711;52.266;10.542;2023-02-01T00:30:42;11.88;;;2.45;;
73474;SDS011;61711;52.266;10.542;2023-02-01T00:33:07;14.65;;;2.10;;
73474;SDS011;61711;52.266;10.542;2023-02-01T00:35:34;9.55;;;2.20;;
73474;SDS011;61711;52.266;10.542;2023-02-01T00:38:00;10.48;;;2.28;;
73474;SDS011;61711;52.266;10.542;2023-02-01T00:40:26;12.93;;;2.28;;
73474;SDS011;61711;52.266;10.542;2023-02-01T00:42:52;16.00;;;2.38;;
73474;SDS011;61711;52.266;10.542;2023-02-01T00:45:19;10.90;;;2.58;;
73474;SDS011;61711;52.266;10.542;2023-02-01T00:47:45;9.60;;;2.22;;
73474;SDS011;61711;52.266;10.542;2023-02-01T00:50:11;13.45;;;2.40;;
73474;SDS011;61711;52.266;10.542;2023-02-01T00:52:37;15.57;;;2.40;;
73474;SDS011;61711;52.266;10.542;2023-02-01T00:55:03;15.20;;;2.10;;
73474;SDS011;61711;52.266;10.542;2023-02-01T00:57:29;14.10;;;2.53;;
73474;SDS011;61711;52.266;10.542;2023-02-01T00:59:56;15.40;;;2.58;;
73474;SDS011;61711;52.266;10.542;2023-02-01T01:02:22;12.57;;;2.22;;
73474;SDS011;61711;52.266;10.542;2023-02-01T01:04:48;17.02;;;2.75;;
73474;SDS011;61711;52.266;10.542;2023-02-01T01:07:14;15.68;;;3.67;;
73474;SDS011;61711;52.266;10.542;2023-02-01T01:09:40;20.80;;;2.63;;
73474;SDS011;61711;52.266;10.542;2023-02-01T01:12:06;10.90;;;2.28;;
73474;SDS011;61711;52.266;10.542;2023-02-01T01:14:32;14.90;;;2.47;;
73474;SDS011;61711;52.266;10.542;2023-02-01T01:16:58;15.77;;;2.50;;
73474;SDS011;61711;52.266;10.542;2023-02-01T01:19:24;15.95;;;2.78;;
73474;SDS011;61711;52.266;10.542;2023-02-01T01:21:50;14.93;;;2.40;;
73474;SDS011;61711;52.266;10.542;2023-02-01T01:24:16;12.20;;;2.17;;
73474;SDS011;61711;52.266;10.542;2023-02-01T01:26:42;19.17;;;2.70;;
73474;SDS011;61711;52.266;10.542;2023-02-01T01:29:08;11.80;;;2.40;;
73474;SDS011;61711;52.266;10.542;2023-02-01T01:31:36;14.77;;;2.92;;
73474;SDS011;61711;52.266;10.542;2023-02-01T01:34:02;11.13;;;2.58;;
73474;SDS011;61711;52.266;10.542;2023-02-01T01:36:28;15.88;;;2.33;;
73474;SDS011;61711;52.266;10.542;2023-02-01T01:38:54;11.15;;;2.30;;
73474;SDS011;61711;52.266;10.542;2023-02-01T01:41:21;10.23;;;1.92;;
73474;SDS011;61711;52.266;10.542;2023-02-01T01:46:27;21.35;;;3.03;;
73474;SDS011;61711;52.266;10.542;2023-02-01T01:48:58;13.02;;;2.22;;
73474;SDS011;61711;52.266;10.542;2023-02-01T01:51:26;19.33;;;2.83;;
73474;SDS011;61711;52.266;10.542;2023-02-01T01:53:59;16.35;;;2.38;;
73474;SDS011;61711;52.266;10.542;2023-02-01T01:56:26;14.43;;;2.47;;
73474;SDS011;61711;52.266;10.542;2023-02-01T01:58:52;13.65;;;2.00;;
73474;SDS011;61711;52.266;10.542;2023-02-01T02:01:19;11.30;;;2.40;;
73474;SDS011;61711;52.266;10.542;2023-02-01T02:03:45;20.80;;;2.80;;
73474;SDS011;61711;52.266;10.542;2023-02-01T02:06:22;18.20;;;2.70;;
73474;SDS011;61711;52.266;10.542;2023-02-01T02:08:52;13.40;;;2.60;;
73474;SDS011;61711;52.266;10.542;2023-02-01T02:11:18;14.02;;;2.50;;
73474;SDS011;61711;52.266;10.542;2023-02-01T02:13:46;15.70;;;2.65;;
73474;SDS011;61711;52.266;10.542;2023-02-01T02:19:13;16.27;;;2.92;;
73474;SDS011;61711;52.266;10.542;2023-02-01T02:21:56;11.00;;;2.58;;
73474;SDS011;61711;52.266;10.542;2023-02-01T02:35:26;9.35;;;2.63;;
73474;SDS011;61711;52.266;10.542;2023-02-01T02:42:57;12.50;;;2.50;;
73474;SDS011;61711;52.266;10.542;2023-02-01T02:51:05;13.98;;;2.60;;
73474;SDS011;61711;52.266;10.542;2023-02-01T02:54:25;14.20;;;2.67;;
73474;SDS011;61711;52.266;10.542;2023-02-01T02:57:03;9.68;;;2.33;;
73474;SDS011;61711;52.266;10.542;2023-02-01T02:59:50;11.95;;;2.45;;
73474;SDS011;61711;52.266;10.542;2023-02-01T03:02:36;13.38;;;2.35;;
73474;SDS011;61711;52.266;10.542;2023-02-01T03:05:21;12.10;;;2.33;;
73474;SDS011;61711;52.266;10.542;2023-02-01T03:08:00;13.55;;;3.13;;
73474;SDS011;61711;52.266;10.542;2023-02-01T03:12:53;16.02;;;2.80;;
73474;SDS011;61711;52.266;10.542;2023-02-01T03:15:20;18.67;;;3.22;;
73474;SDS011;61711;52.266;10.542;2023-02-01T03:17:47;12.10;;;2.60;;
73474;SDS011;61711;52.266;10.542;2023-02-01T03:20:16;12.55;;;2.95;;
73474;SDS011;61711;52.266;10.542;2023-02-01T03:22:44;14.50;;;2.65;;
73474;SDS011;61711;52.266;10.542;2023-02-01T03:25:13;11.68;;;3.13;;
73474;SDS011;61711;52.266;10.542;2023-02-01T03:30:18;9.75;;;2.92;;
73474;SDS011;61711;52.266;10.542;2023-02-01T03:32:46;16.20;;;2.90;;
73474;SDS011;61711;52.266;10.542;2023-02-01T03:38:01;13.27;;;3.15;;
73474;SDS011;61711;52.266;10.542;2023-02-01T03:40:27;11.88;;;3.38;;
73474;SDS011;61711;52.266;10.542;2023-02-01T03:42:55;14.45;;;3.20;;
73474;SDS011;61711;52.266;10.542;2023-02-01T03:45:24;12.18;;;2.75;;
73474;SDS011;61711;52.266;10.542;2023-02-01T03:47:53;21.80;;;3.80;;
73474;SDS011;61711;52.266;10.542;2023-02-01T03:50:21;16.95;;;3.80;;
73474;SDS011;61711;52.266;10.542;2023-02-01T03:52:51;15.80;;;3.20;;
73474;SDS011;61711;52.266;10.542;2023-02-01T03:55:18;19.60;;;3.60;;
73474;SDS011;61711;52.266;10.542;2023-02-01T03:57:50;12.50;;;2.95;;
73474;SDS011;61711;52.266;10.542;2023-02-01T04:00:21;12.70;;;3.03;;
73474;SDS011;61711;52.266;10.542;2023-02-01T04:02:48;19.25;;;3.45;;
73474;SDS011;61711;52.266;10.542;2023-02-01T04:05:14;16.98;;;3.80;;
73474;SDS011;61711;52.266;10.542;2023-02-01T04:07:40;16.50;;;3.13;;
73474;SDS011;61711;52.266;10.542;2023-02-01T04:10:06;16.75;;;3.53;;
73474;SDS011;61711;52.266;10.542;2023-02-01T04:12:32;16.85;;;3.75;;
73474;SDS011;61711;52.266;10.542;2023-02-01T04:14:58;19.83;;;3.85;;
73474;SDS011;61711;52.266;10.542;2023-02-01T04:17:25;12.32;;;3.35;;
73474;SDS011;61711;52.266;10.542;2023-02-01T04:19:51;13.55;;;3.80;;
73474;SDS011;61711;52.266;10.542;2023-02-01T04:22:16;13.88;;;3.72;;
73474;SDS011;61711;52.266;10.542;2023-02-01T04:24:42;11.90;;;3.78;;
73474;SDS011;61711;52.266;10.542;2023-02-01T04:27:08;15.07;;;3.28;;
73474;SDS011;61711;52.266;10.542;2023-02-01T04:29:34;16.17;;;3.20;;
73474;SDS011;61711;52.266;10.542;2023-02-01T04:32:00;17.25;;;3.30;;
73474;SDS011;61711;52.266;10.542;2023-02-01T04:34:26;12.93;;;3.63;;
73474;SDS011;61711;52.266;10.542;2023-02-01T04:36:52;16.55;;;3.55;;
73474;SDS011;61711;52.266;10.542;2023-02-01T04:39:18;18.35;;;3.60;;
73474;SDS011;61711;52.266;10.542;2023-02-01T04:41:44;19.13;;;3.25;;
73474;SDS011;61711;52.266;10.542;2023-02-01T04:44:15;13.40;;;3.33;;
73474;SDS011;61711;52.266;10.542;2023-02-01T04:46:41;15.20;;;3.65;;
73474;SDS011;61711;52.266;10.542;2023-02-01T04:49:10;12.13;;;3.13;;
73474;SDS011;61711;52.266;10.542;2023-02-01T04:51:37;15.25;;;3.63;;
73474;SDS011;61711;52.266;10.542;2023-02-01T04:54:03;18.75;;;3.80;;
73474;SDS011;61711;52.266;10.542;2023-02-01T04:56:29;22.00;;;5.78;;
73474;SDS011;61711;52.266;10.542;2023-02-01T04:58:55;16.98;;;4.60;;
73474;SDS011;61711;52.266;10.542;2023-02-01T05:01:21;12.05;;;3.63;;
73474;SDS011;61711;52.266;10.542;2023-02-01T05:03:50;12.15;;;3.20;;
73474;SDS011;61711;52.266;10.542;2023-02-01T05:06:16;14.10;;;3.80;;
73474;SDS011;61711;52.266;10.542;2023-02-01T05:08:42;14.48;;;3.85;;
73474;SDS011;61711;52.266;10.542;2023-02-01T05:11:08;9.23;;;3.25;;
73474;SDS011;61711;52.266;10.542;2023-02-01T05:13:53;14.98;;;4.38;;
73474;SDS011;61711;52.266;10.542;2023-02-01T05:16:19;18.02;;;3.55;;
73474;SDS011;61711;52.266;10.542;2023-02-01T05:18:45;13.57;;;3.45;;
73474;SDS011;61711;52.266;10.542;2023-02-01T05:21:11;11.80;;;3.53;;
73474;SDS011;61711;52.266;10.542;2023-02-01T05:23:37;14.98;;;4.13;;
73474;SDS011;61711;52.266;10.542;2023-02-01T05:26:23;17.25;;;4.03;;
73474;SDS011;61711;52.266;10.542;2023-02-01T05:28:49;16.33;;;3.80;;
73474;SDS011;61711;52.266;10.542;2023-02-01T05:31:15;9.05;;;3.53;;
73474;SDS011;61711;52.266;10.542;2023-02-01T05:33:41;15.18;;;3.85;;
73474;SDS011;61711;52.266;10.542;2023-02-01T05:36:08;17.10;;;4.55;;
73474;SDS011;61711;52.266;10.542;2023-02-01T05:38:34;15.35;;;4.22;;
73474;SDS011;61711;52.266;10.542;2023-02-01T05:41:00;13.88;;;4.65;;
73474;SDS011;61711;52.266;10.542;2023-02-01T05:43:26;15.05;;;4.88;;
73474;SDS011;61711;52.266;10.542;2023-02-01T05:45:52;18.58;;;4.43;;
73474;SDS011;61711;52.266;10.542;2023-02-01T05:48:18;15.50;;;4.10;;
73474;SDS011;61711;52.266;10.542;2023-02-01T05:50:44;19.05;;;5.80;;
73474;SDS011;61711;52.266;10.542;2023-02-01T05:53:10;17.27;;;4.40;;
73474;SDS011;61711;52.266;10.542;2023-02-01T05:55:36;19.88;;;4.88;;
73474;SDS011;61711;52.266;10.542;2023-02-01T05:58:03;16.73;;;4.57;;
73474;SDS011;61711;52.266;10.542;2023-02-01T06:00:29;18.00;;;4.32;;
73474;SDS011;61711;52.266;10.542;2023-02-01T06:02:55;20.27;;;4.55;;
73474;SDS011;61711;52.266;10.542;2023-02-01T06:05:21;14.38;;;4.32;;
73474;SDS011;61711;52.266;10.542;2023-02-01T06:07:47;20.10;;;5.10;;
73474;SDS011;61711;52.266;10.542;2023-02-01T06:10:14;14.93;;;4.95;;
73474;SDS011;61711;52.266;10.542;2023-02-01T06:12:41;13.95;;;4.65;;
73474;SDS011;61711;52.266;10.542;2023-02-01T06:15:07;18.20;;;4.53;;
73474;SDS011;61711;52.266;10.542;2023-02-01T06:17:33;17.30;;;4.43;;
73474;SDS011;61711;52.266;10.542;2023-02-01T06:19:59;12.32;;;4.65;;
73474;SDS011;61711;52.266;10.542;2023-02-01T06:22:25;15.95;;;4.70;;
73474;SDS011;61711;52.266;10.542;2023-02-01T06:24:51;13.18;;;4.03;;
73474;SDS011;61711;52.266;10.542;2023-02-01T06:27:17;14.65;;;4.35;;
73474;SDS011;61711;52.266;10.542;2023-02-01T06:29:43;15.40;;;4.43;;
73474;SDS011;61711;52.266;10.542;2023-02-01T06:32:10;13.90;;;4.13;;
73474;SDS011;61711;52.266;10.542;2023-02-01T06:34:36;14.85;;;4.40;;
73474;SDS011;61711;52.266;10.542;2023-02-01T06:37:04;11.02;;;3.78;;
73474;SDS011;61711;52.266;10.542;2023-02-01T06:39:30;14.30;;;4.10;;
73474;SDS011;61711;52.266;10.542;2023-02-01T06:41:56;21.38;;;4.50;;
73474;SDS011;61711;52.266;10.542;2023-02-01T06:44:22;16.77;;;3.55;;
73474;SDS011;61711;52.266;10.542;2023-02-01T06:46:48;13.45;;;3.60;;
73474;SDS011;61711;52.266;10.542;2023-02-01T06:49:15;14.35;;;3.65;;
73474;SDS011;61711;52.266;10.542;2023-02-01T06:51:41;13.93;;;3.75;;
73474;SDS011;61711;52.266;10.542;2023-02-01T06:54:07;13.57;;;3.85;;
73474;SDS011;61711;52.266;10.542;2023-02-01T06:56:33;12.25;;;3.88;;
73474;SDS011;61711;52.266;10.542;2023-02-01T06:58:59;12.88;;;3.97;;
73474;SDS011;61711;52.266;10.542;2023-02-01T07:01:25;11.60;;;3.80;;
73474;SDS011;61711;52.266;10.542;2023-02-01T07:03:51;12.73;;;3.88;;
73474;SDS011;61711;52.266;10.542;2023-02-01T07:06:17;16.30;;;3.80;;
73474;SDS011;61711;52.266;10.542;2023-02-01T07:08:44;10.27;;;3.63;;
73474;SDS011;61711;52.266;10.542;2023-02-01T07:11:10;13.85;;;3.63;;
73474;SDS011;61711;52.266;10.542;2023-02-01T07:13:37;8.45;;;3.88;;
73474;SDS011;61711;52.266;10.542;2023-02-01T07:16:04;10.30;;;3.50;;
73474;SDS011;61711;52.266;10.542;2023-02-01T07:18:31;8.75;;;3.00;;
73474;SDS011;61711;52.266;10.542;2023-02-01T07:20:57;11.68;;;3.40;;
73474;SDS011;61711;52.266;10.542;2023-02-01T07:23:23;10.60;;;3.05;;
73474;SDS011;61711;52.266;10.542;2023-02-01T07:25:53;8.68;;;2.95;;
73474;SDS011;61711;52.266;10.542;2023-02-01T07:28:19;9.32;;;3.15;;
73474;SDS011;61711;52.266;10.542;2023-02-01T07:30:45;8.23;;;2.90;;
73474;SDS011;61711;52.266;10.542;2023-02-01T07:33:16;6.82;;;2.75;;
73474;SDS011;61711;52.266;10.542;2023-02-01T07:35:42;6.00;;;2.85;;
73474;SDS011;61711;52.266;10.542;2023-02-01T07:38:08;10.80;;;3.00;;
73474;SDS011;61711;52.266;10.542;2023-02-01T07:40:34;9.38;;;2.53;;
73474;SDS011;61711;52.266;10.542;2023-02-01T07:43:00;8.80;;;3.20;;
73474;SDS011;61711;52.266;10.542;2023-02-01T07:45:26;8.52;;;3.05;;
73474;SDS011;61711;52.266;10.542;2023-02-01T07:47:52;9.32;;;3.35;;
73474;SDS011;61711;52.266;10.542;2023-02-01T07:50:18;10.60;;;3.30;;
73474;SDS011;61711;52.266;10.542;2023-02-01T07:52:44;8.30;;;3.28;;
73474;SDS011;61711;52.266;10.542;2023-02-01T07:55:10;12.55;;;4.05;;
73474;SDS011;61711;52.266;10.542;2023-02-01T07:57:37;9.35;;;3.83;;
73474;SDS011;61711;52.266;10.542;2023-02-01T08:00:03;15.50;;;4.22;;
73474;SDS011;61711;52.266;10.542;2023-02-01T08:02:48;11.65;;;3.00;;
73474;SDS011;61711;52.266;10.542;2023-02-01T08:05:14;8.70;;;3.20;;
73474;SDS011;61711;52.266;10.542;2023-02-01T08:07:40;9.80;;;3.40;;
73474;SDS011;61711;52.266;10.542;2023-02-01T08:10:06;6.97;;;2.80;;
73474;SDS011;61711;52.266;10.542;2023-02-01T08:12:35;10.85;;;3.45;;
73474;SDS011;61711;52.266;10.542;2023-02-01T08:15:02;14.32;;;3.97;;
73474;SDS011;61711;52.266;10.542;2023-02-01T08:17:28;9.75;;;3.30;;
73474;SDS011;61711;52.266;10.542;2023-02-01T08:19:54;14.30;;;3.47;;
73474;SDS011;61711;52.266;10.542;2023-02-01T08:22:20;14.25;;;4.05;;
73474;SDS011;61711;52.266;10.542;2023-02-01T08:24:49;19.25;;;3.38;;
73474;SDS011;61711;52.266;10.542;2023-02-01T08:27:15;11.80;;;3.38;;
73474;SDS011;61711;52.266;10.542;2023-02-01T08:29:41;16.23;;;3.28;;
73474;SDS011;61711;52.266;10.542;2023-02-01T08:32:07;13.88;;;3.67;;
73474;SDS011;61711;52.266;10.542;2023-02-01T08:34:33;14.10;;;3.25;;
73474;SDS011;61711;52.266;10.542;2023-02-01T08:36:59;11.05;;;3.25;;
73474;SDS011;61711;52.266;10.542;2023-02-01T08:39:26;18.25;;;3.85;;
73474;SDS011;61711;52.266;10.542;2023-02-01T08:41:52;16.83;;;3.25;;
73474;SDS011;61711;52.266;10.542;2023-02-01T08:44:36;12.18;;;3.60;;
73474;SDS011;61711;52.266;10.542;2023-02-01T08:47:03;15.35;;;3.33;;
73474;SDS011;61711;52.266;10.542;2023-02-01T08:49:29;13.93;;;2.88;;
73474;SDS011;61711;52.266;10.542;2023-02-01T08:51:55;10.32;;;4.10;;
73474;SDS011;61711;52.266;10.542;2023-02-01T08:54:21;16.50;;;3.92;;
73474;SDS011;61711;52.266;10.542;2023-02-01T08:56:47;10.85;;;3.60;;
73474;SDS011;61711;52.266;10.542;2023-02-01T08:59:13;15.80;;;3.63;;
73474;SDS011;61711;52.266;10.542;2023-02-01T09:01:39;11.10;;;3.53;;
73474;SDS011;61711;52.266;10.542;2023-02-01T09:04:05;9.70;;;2.72;;
73474;SDS011;61711;52.266;10.542;2023-02-01T09:06:31;7.90;;;2.88;;
73474;SDS011;61711;52.266;10.542;2023-02-01T09:08:57;12.30;;;3.10;;
73474;SDS011;61711;52.266;10.542;2023-02-01T09:11:23;8.43;;;3.10;;
73474;SDS011;61711;52.266;10.542;2023-02-01T09:13:50;8.98;;;3.50;;
73474;SDS011;61711;52.266;10.542;2023-02-01T09:16:16;13.65;;;3.15;;
73474;SDS011;61711;52.266;10.542;2023-02-01T09:18:42;11.10;;;3.00;;
73474;SDS011;61711;52.266;10.542;2023-02-01T09:21:08;13.35;;;3.40;;
73474;SDS011;61711;52.266;10.542;2023-02-01T09:23:35;12.45;;;3.17;;
73474;SDS011;61711;52.266;10.542;2023-02-01T09:26:03;14.25;;;3.10;;
73474;SDS011;61711;52.266;10.542;2023-02-01T09:28:29;14.32;;;3.10;;
73474;SDS011;61711;52.266;10.542;2023-02-01T09:30:56;11.48;;;3.08;;
73474;SDS011;61711;52.266;10.542;2023-02-01T09:33:22;13.75;;;2.90;;
73474;SDS011;61711;52.266;10.542;2023-02-01T09:35:49;15.48;;;3.03;;
73474;SDS011;61711;52.266;10.542;2023-02-01T09:38:15;15.63;;;3.47;;
73474;SDS011;61711;52.266;10.542;2023-02-01T09:40:41;14.68;;;2.45;;
73474;SDS011;61711;52.266;10.542;2023-02-01T09:43:19;11.63;;;2.53;;
73474;SDS011;61711;52.266;10.542;2023-02-01T09:48:14;9.15;;;2.70;;
73474;SDS011;61711;52.266;10.542;2023-02-01T09:50:42;9.70;;;2.60;;
73474;SDS011;61711;52.266;10.542;2023-02-01T09:55:51;12.60;;;2.58;;
73474;SDS011;61711;52.266;10.542;2023-02-01T10:00:58;11.68;;;2.70;;
73474;SDS011;61711;52.266;10.542;2023-02-01T10:03:26;12.68;;;2.17;;
73474;SDS011;61711;52.266;10.542;2023-02-01T10:06:06;11.85;;;2.38;;
73474;SDS011;61711;52.266;10.542;2023-02-01T10:08:44;6.50;;;2.13;;
73474;SDS011;61711;52.266;10.542;2023-02-01T10:11:20;8.57;;;2.15;;
73474;SDS011;61711;52.266;10.542;2023-02-01T10:21:36;12.57;;;2.67;;
73474;SDS011;61711;52.266;10.542;2023-02-01T10:24:16;10.98;;;2.30;;
73474;SDS011;61711;52.266;10.542;2023-02-01T10:26:47;13.60;;;2.33;;
73474;SDS011;61711;52.266;10.542;2023-02-01T10:29:19;9.73;;;2.60;;
73474;SDS011;61711;52.266;10.542;2023-02-01T10:31:45;10.32;;;3.33;;
73474;SDS011;61711;52.266;10.542;2023-02-01T10:36:41;8.02;;;2.28;;
73474;SDS011;61711;52.266;10.542;2023-02-01T10:39:10;11.27;;;2.50;;
73474;SDS011;61711;52.266;10.542;2023-02-01T10:41:39;8.85;;;2.30;;
73474;SDS011;61711;52.266;10.542;2023-02-01T10:44:15;9.55;;;2.40;;
73474;SDS011;61711;52.266;10.542;2023-02-01T10:46:41;12.63;;;3.47;;
73474;SDS011;61711;52.266;10.542;2023-02-01T10:49:11;10.18;;;2.90;;
73474;SDS011;61711;52.266;10.542;2023-02-01T10:51:57;9.98;;;2.53;;
73474;SDS011;61711;52.266;10.542;2023-02-01T10:54:36;12.00;;;2.95;;
73474;SDS011;61711;52.266;10.542;2023-02-01T10:57:09;8.48;;;3.00;;
73474;SDS011;61711;52.266;10.542;2023-02-01T10:59:35;8.05;;;2.28;;
73474;SDS011;61711;52.266;10.542;2023-02-01T11:02:05;11.10;;;2.70;;
73474;SDS011;61711;52.266;10.542;2023-02-01T11:04:39;5.55;;;2.53;;
73474;SDS011;61711;52.266;10.542;2023-02-01T11:07:16;6.82;;;2.25;;
73474;SDS011;61711;52.266;10.542;2023-02-01T11:09:48;12.05;;;2.92;;
73474;SDS011;61711;52.266;10.542;2023-02-01T11:12:48;11.15;;;2.88;;
73474;SDS011;61711;52.266;10.542;2023-02-01T11:15:20;11.07;;;2.92;;
73474;SDS011;61711;52.266;10.542;2023-02-01T11:17:47;12.15;;;2.97;;
73474;SDS011;61711;52.266;10.542;2023-02-01T11:20:37;11.43;;;2.70;;
73474;SDS011;61711;52.266;10.542;2023-02-01T11:23:02;11.18;;;3.00;;
73474;SDS011;61711;52.266;10.542;2023-02-01T11:25:36;6.93;;;2.20;;
73474;SDS011;61711;52.266;10.542;2023-02-01T11:28:03;10.10;;;2.90;;
73474;SDS011;61711;52.266;10.542;2023-02-01T11:32:55;12.10;;;3.28;;
73474;SDS011;61711;52.266;10.542;2023-02-01T11:35:21;10.68;;;3.47;;
73474;SDS011;61711;52.266;10.542;2023-02-01T11:37:52;7.88;;;2.97;;
73474;SDS011;61711;52.266;10.542;2023-02-01T11:42:53;12.48;;;2.67;;
73474;SDS011;61711;52.266;10.542;2023-02-01T11:47:45;13.15;;;2.75;;
73474;SDS011;61711;52.266;10.542;2023-02-01T11:50:19;9.45;;;2.65;;
73474;SDS011;61711;52.266;10.542;2023-02-01T11:55:33;9.00;;;2.33;;
73474;SDS011;61711;52.266;10.542;2023-02-01T12:13:36;13.10;;;2.88;;
73474;SDS011;61711;52.266;10.542;2023-02-01T12:32:04;9.07;;;2.90;;
73474;SDS011;61711;52.266;10.542;2023-02-01T12:42:24;9.10;;;2.25;;
73474;SDS011;61711;52.266;10.542;2023-02-01T12:49:55;11.57;;;2.67;;
73474;SDS011;61711;52.266;10.542;2023-02-01T12:52:26;10.93;;;2.70;;
73474;SDS011;61711;52.266;10.542;2023-02-01T12:57:23;10.95;;;2.95;;
73474;SDS011;61711;52.266;10.542;2023-02-01T13:05:15;10.75;;;3.10;;
73474;SDS011;61711;52.266;10.542;2023-02-01T13:07:46;11.20;;;3.17;;
73474;SDS011;61711;52.266;10.542;2023-02-01T13:12:44;8.15;;;2.42;;
73474;SDS011;61711;52.266;10.542;2023-02-01T13:17:40;9.85;;;2.80;;
73474;SDS011;61711;52.266;10.542;2023-02-01T13:22:40;11.68;;;3.13;;
73474;SDS011;61711;52.266;10.542;2023-02-01T13:25:12;11.00;;;3.58;;
73474;SDS011;61711;52.266;10.542;2023-02-01T13:27:39;11.15;;;3.03;;
73474;SDS011;61711;52.266;10.542;2023-02-01T13:30:18;10.00;;;3.35;;
73474;SDS011;61711;52.266;10.542;2023-02-01T13:40:17;9.15;;;3.15;;
73474;SDS011;61711;52.266;10.542;2023-02-01T13:43:11;8.73;;;2.92;;
73474;SDS011;61711;52.266;10.542;2023-02-01T13:45:34;7.85;;;2.75;;
73474;SDS011;61711;52.266;10.542;2023-02-01T13:48:03;8.70;;;2.80;;
73474;SDS011;61711;52.266;10.542;2023-02-01T13:50:30;7.47;;;3.20;;
73474;SDS011;61711;52.266;10.542;2023-02-01T13:53:22;10.43;;;3.28;;
73474;SDS011;61711;52.266;10.542;2023-02-01T13:55:46;9.63;;;3.13;;
73474;SDS011;61711;52.266;10.542;2023-02-01T14:00:39;7.90;;;2.80;;
73474;SDS011;61711;52.266;10.542;2023-02-01T14:26:23;1.55;;;1.00;;
73474;SDS011;61711;52.266;10.542;2023-02-01T14:31:27;1.20;;;0.52;;
73474;SDS011;61711;52.266;10.542;2023-02-01T14:33:57;0.90;;;0.50;;
73474;SDS011;61711;52.266;10.542;2023-02-01T14:36:24;2.13;;;0.60;;
73474;SDS011;61711;52.266;10.542;2023-02-01T14:38:50;0.50;;;0.45;;
73474;SDS011;61711;52.266;10.542;2023-02-01T14:43:50;1.48;;;0.70;;
73474;SDS011;61711;52.266;10.542;2023-02-01T14:46:16;0.88;;;0.60;;
73474;SDS011;61711;52.266;10.542;2023-02-01T14:48:43;2.20;;;1.10;;
73474;SDS011;61711;52.266;10.542;2023-02-01T14:51:11;3.90;;;1.00;;
73474;SDS011;61711;52.266;10.542;2023-02-01T14:53:39;3.03;;;0.73;;
73474;SDS011;61711;52.266;10.542;2023-02-01T14:56:08;1.50;;;0.77;;
73474;SDS011;61711;52.266;10.542;2023-02-01T14:58:40;2.85;;;0.88;;
73474;SDS011;61711;52.266;10.542;2023-02-01T15:03:47;1.83;;;0.73;;
73474;SDS011;61711;52.266;10.542;2023-02-01T15:06:20;3.17;;;1.00;;
73474;SDS011;61711;52.266;10.542;2023-02-01T15:08:48;1.88;;;0.80;;
73474;SDS011;61711;52.266;10.542;2023-02-01T15:11:14;1.55;;;0.80;;
73474;SDS011;61711;52.266;10.542;2023-02-01T15:13:40;2.40;;;0.98;;
73474;SDS011;61711;52.266;10.542;2023-02-01T15:16:14;2.38;;;0.80;;
73474;SDS011;61711;52.266;10.542;2023-02-01T15:18:41;3.63;;;1.00;;
73474;SDS011;61711;52.266;10.542;2023-02-01T15:21:14;1.50;;;0.80;;
73474;SDS011;61711;52.266;10.542;2023-02-01T15:23:41;2.47;;;0.80;;
73474;SDS011;61711;52.266;10.542;2023-02-01T15:26:07;1.08;;;0.88;;
73474;SDS011;61711;52.266;10.542;2023-02-01T15:28:33;2.45;;;0.70;;
73474;SDS011;61711;52.266;10.542;2023-02-01T15:31:00;2.65;;;0.70;;
73474;SDS011;61711;52.266;10.542;2023-02-01T15:33:27;3.70;;;1.05;;
73474;SDS011;61711;52.266;10.542;2023-02-01T15:35:54;2.33;;;0.90;;
73474;SDS011;61711;52.266;10.542;2023-02-01T15:40:55;5.53;;;1.30;;
73474;SDS011;61711;52.266;10.542;2023-02-01T15:43:22;2.78;;;1.30;;
73474;SDS011;61711;52.266;10.542;2023-02-01T15:45:49;2.08;;;1.13;;
73474;SDS011;61711;52.266;10.542;2023-02-01T15:48:20;2.85;;;1.20;;
73474;SDS011;61711;52.266;10.542;2023-02-01T15:50:47;5.82;;;1.77;;
73474;SDS011;61711;52.266;10.542;2023-02-01T15:53:16;6.55;;;2.17;;
73474;SDS011;61711;52.266;10.542;2023-02-01T15:55:43;7.85;;;3.35;;
73474;SDS011;61711;52.266;10.542;2023-02-01T15:58:16;5.50;;;1.52;;
73474;SDS011;61711;52.266;10.542;2023-02-01T16:00:53;4.32;;;1.27;;
73474;SDS011;61711;52.266;10.542;2023-02-01T16:03:40;5.00;;;1.17;;
73474;SDS011;61711;52.266;10.542;2023-02-01T16:06:08;5.80;;;1.33;;
73474;SDS011;61711;52.266;10.542;2023-02-01T16:08:34;4.55;;;1.02;;
73474;SDS011;61711;52.266;10.542;2023-02-01T16:13:28;5.50;;;1.20;;
73474;SDS011;61711;52.266;10.542;2023-02-01T16:15:54;6.03;;;1.85;;
73474;SDS011;61711;52.266;10.542;2023-02-01T16:18:20;2.95;;;1.40;;
73474;SDS011;61711;52.266;10.542;2023-02-01T16:20:46;5.75;;;1.50;;
73474;SDS011;61711;52.266;10.542;2023-02-01T16:23:13;3.13;;;1.20;;
73474;SDS011;61711;52.266;10.542;2023-02-01T16:25:39;2.70;;;1.10;;
73474;SDS011;61711;52.266;10.542;2023-02-01T16:28:06;4.35;;;1.27;;
73474;SDS011;61711;52.266;10.542;2023-02-01T16:30:33;5.35;;;1.50;;
73474;SDS011;61711;52.266;10.542;2023-02-01T16:32:59;9.13;;;1.60;;
73474;SDS011;61711;52.266;10.542;2023-02-01T16:35:32;6.22;;;1.83;;
73474;SDS011;61711;52.266;10.542;2023-02-01T16:38:05;6.70;;;1.85;;
73474;SDS011;61711;52.266;10.542;2023-02-01T16:40:37;7.65;;;2.67;;
73474;SDS011;61711;52.266;10.542;2023-02-01T16:43:23;4.82;;;1.88;;
73474;SDS011;61711;52.266;10.542;2023-02-01T16:45:49;7.13;;;3.17;;
73474;SDS011;61711;52.266;10.542;2023-02-01T16:48:21;7.22;;;2.38;;
73474;SDS011;61711;52.266;10.542;2023-02-01T16:50:49;6.38;;;2.20;;
73474;SDS011;61711;52.266;10.542;2023-02-01T16:53:16;5.93;;;2.13;;
73474;SDS011;61711;52.266;10.542;2023-02-01T16:55:42;11.55;;;1.98;;
73474;SDS011;61711;52.266;10.542;2023-02-01T16:58:08;5.85;;;2.20;;
73474;SDS011;61711;52.266;10.542;2023-02-01T17:00:35;5.93;;;2.00;;
73474;SDS011;61711;52.266;10.542;2023-02-01T17:03:02;9.75;;;2.53;;
73474;SDS011;61711;52.266;10.542;2023-02-01T17:05:30;9.10;;;2.65;;
73474;SDS011;61711;52.266;10.542;2023-02-01T17:07:56;6.20;;;2.08;;
73474;SDS011;61711;52.266;10.542;2023-02-01T17:10:24;7.18;;;2.10;;
73474;SDS011;61711;52.266;10.542;2023-02-01T17:12:52;7.25;;;2.00;;
73474;SDS011;61711;52.266;10.542;2023-02-01T17:15:18;9.43;;;2.00;;
73474;SDS011;61711;52.266;10.542;2023-02-01T17:17:44;6.50;;;1.90;;
73474;SDS011;61711;52.266;10.542;2023-02-01T17:20:17;11.43;;;3.30;;
73474;SDS011;61711;52.266;10.542;2023-02-01T17:22:44;6.18;;;2.20;;